Back to Top

Language: 

My Weather Underground Personal Weather Station Historical Data with Graphs...

Delerius Weather Station Historical Data
Daily Summary for July 9, 2017 Units:  Metric    English   Both
« Previous Day
Next Day »
Daily Weekly Monthly Yearly Custom
  High: Low: Average:
Temperature: 25.8 °C 10.7 °C 19.1 °C
Dew Point: 15.7 °C 9.3 °C 13.3 °C
Humidity: 93 % 50 % 71 %
Wind Speed: 14.5 km/h 0 km/h 6.8 km/h
Wind Gust: 29 km/h - -
Wind:- - West
Pressure: 1015.8 hPa 1008.4 hPa -
Precipitation: 0 mm    
Historical Graphs
 
 
Tabular Data for July 9, 2017
Time Temperature Dew Point Pressure Wind Wind Speed Wind Gust Humidity Rainfall Rate (Hourly) solar Conditions
00:03 13.8 °C 10.9 °C 1015.8 hPa Calm     83 % 0 mm 0 W/m2
00:08 13.6 °C 10.8 °C 1015.8 hPa Calm     83 % 0 mm 0 W/m2
00:13 13.4 °C 10.8 °C 1015.8 hPa Calm     84 % 0 mm 0 W/m2
00:17 13.3 °C 10.7 °C 1015.8 hPa Calm     84 % 0 mm 0 W/m2
00:22 13.1 °C 10.6 °C 1015.8 hPa Calm     85 % 0 mm 0 W/m2
00:28 12.9 °C 10.6 °C 1015.8 hPa Calm     86 % 0 mm 0 W/m2
00:33 12.8 °C 10.5 °C 1015.8 hPa Calm     86 % 0 mm 0 W/m2
00:38 12.7 °C 10.6 °C 1015.8 hPa Calm     87 % 0 mm 0 W/m2
00:43 12.6 °C 10.5 °C 1015.5 hPa Calm     87 % 0 mm 0 W/m2
00:48 12.5 °C 10.6 °C 1015.5 hPa Calm     88 % 0 mm 0 W/m2
00:53 12.4 °C 10.4 °C 1015.5 hPa Calm     88 % 0 mm 0 W/m2
00:58 12.3 °C 10.4 °C 1015.1 hPa Calm     88 % 0 mm 0 W/m2
01:03 12.3 °C 10.6 °C 1015.1 hPa Calm     89 % 0 mm 0 W/m2
01:08 12.3 °C 10.6 °C 1015.1 hPa Calm   3.2 km/h 89 % 0 mm 0 W/m2
01:13 12.4 °C 10.6 °C 1015.1 hPa Calm   3.2 km/h 89 % 0 mm 0 W/m2
01:18 12.4 °C 10.6 °C 1014.8 hPa Calm   1.6 km/h 89 % 0 mm 0 W/m2
01:23 12.4 °C 10.6 °C 1014.8 hPa Calm     89 % 0 mm 0 W/m2
01:28 12.3 °C 10.6 °C 1014.8 hPa Calm     89 % 0 mm 0 W/m2
01:33 12.2 °C 10.4 °C 1014.8 hPa Calm     89 % 0 mm 0 W/m2
01:38 12.1 °C 10.3 °C 1014.8 hPa Calm     89 % 0 mm 0 W/m2
01:43 12.1 °C 10.3 °C 1014.8 hPa Calm     89 % 0 mm 0 W/m2
01:48 12 °C 10.2 °C 1014.8 hPa Calm     89 % 0 mm 0 W/m2
01:53 11.9 °C 10.2 °C 1014.8 hPa Calm     89 % 0 mm 0 W/m2
01:58 11.8 °C 10.1 °C 1014.8 hPa Calm     89 % 0 mm 0 W/m2
02:03 11.7 °C 9.9 °C 1014.8 hPa Calm     89 % 0 mm 0 W/m2
02:08 11.5 °C 9.7 °C 1014.8 hPa Calm     89 % 0 mm 0 W/m2
02:13 11.4 °C 9.8 °C 1014.8 hPa Calm     90 % 0 mm 0 W/m2
02:18 11.4 °C 9.8 °C 1014.8 hPa Calm     90 % 0 mm 0 W/m2
02:23 11.3 °C 9.7 °C 1014.8 hPa Calm     90 % 0 mm 0 W/m2
02:28 11.3 °C 9.7 °C 1014.8 hPa Calm     90 % 0 mm 0 W/m2
02:33 11.2 °C 9.6 °C 1014.8 hPa Calm     90 % 0 mm 0 W/m2
02:38 11.2 °C 9.8 °C 1014.8 hPa Calm     91 % 0 mm 0 W/m2
02:43 11.1 °C 9.7 °C 1014.4 hPa Calm     91 % 0 mm 0 W/m2
02:48 11.1 °C 9.7 °C 1014.4 hPa Calm     91 % 0 mm 0 W/m2
02:53 11.1 °C 9.7 °C 1014.4 hPa Calm     91 % 0 mm 0 W/m2
02:58 11.1 °C 9.7 °C 1014.4 hPa Calm     91 % 0 mm 0 W/m2
03:03 11.1 °C 9.7 °C 1014.4 hPa Calm     91 % 0 mm 0 W/m2
03:08 11.1 °C 9.7 °C 1014.1 hPa Calm     91 % 0 mm 0 W/m2
03:13 11.1 °C 9.7 °C 1014.1 hPa Calm     91 % 0 mm 0 W/m2
03:18 11.1 °C 9.7 °C 1014.1 hPa Calm     91 % 0 mm 0 W/m2
03:23 11.2 °C 9.8 °C 1014.1 hPa Calm     91 % 0 mm 0 W/m2
03:28 11.2 °C 9.8 °C 1014.1 hPa Calm     91 % 0 mm 0 W/m2
03:33 11.2 °C 9.8 °C 1014.1 hPa Calm     91 % 0 mm 0 W/m2
03:35 11.1 °C 9.7 °C 1014.1 hPa Calm     91 % 0 mm 0 W/m2
03:40 11.1 °C 9.7 °C 1014.1 hPa Calm     91 % 0 mm 0 W/m2
03:45 11 °C 9.6 °C 1014.1 hPa Calm     91 % 0 mm 0 W/m2
03:50 10.9 °C 9.3 °C 1014.1 hPa Calm     90 % 0 mm 0 W/m2
03:55 10.9 °C 9.5 °C 1014.1 hPa Calm     91 % 0 mm 0 W/m2
04:00 10.8 °C 9.4 °C 1014.1 hPa Calm     91 % 0 mm 0 W/m2
04:05 10.8 °C 9.4 °C 1013.8 hPa Calm     91 % 0 mm 0 W/m2
04:10 10.7 °C 9.3 °C 1013.8 hPa Calm     91 % 0 mm 0 W/m2
04:15 10.7 °C 9.4 °C 1013.8 hPa Calm     92 % 0 mm 0 W/m2
04:20 10.8 °C 9.6 °C 1013.8 hPa Calm     92 % 0 mm 0 W/m2
04:25 11.1 °C 10 °C 1013.8 hPa Calm     93 % 0 mm 0 W/m2
04:30 11.3 °C 10.2 °C 1013.8 hPa Calm     93 % 0 mm 0 W/m2
04:31 11.3 °C 10.2 °C 1013.8 hPa Calm     93 % 0 mm 0 W/m2
04:36 11.3 °C 10.1 °C 1013.8 hPa Calm     92 % 0 mm 0 W/m2
04:41 11.2 °C 9.8 °C 1013.8 hPa Calm     91 % 0 mm 0 W/m2
04:46 11.2 °C 9.8 °C 1013.8 hPa Calm     91 % 0 mm 0 W/m2
04:51 11.1 °C 9.7 °C 1013.8 hPa Calm     91 % 0 mm 0 W/m2
04:56 11.1 °C 9.7 °C 1013.4 hPa Calm     91 % 0 mm 5 W/m2
05:01 11.2 °C 9.9 °C 1013.8 hPa Calm     92 % 0 mm 5 W/m2
05:06 11.2 °C 9.8 °C 1013.4 hPa Calm     91 % 0 mm 7 W/m2
05:11 11.2 °C 9.8 °C 1013.4 hPa Calm     91 % 0 mm 7 W/m2
05:16 11.2 °C 9.8 °C 1013.4 hPa Calm     91 % 0 mm 9 W/m2
05:21 11.2 °C 9.9 °C 1013.4 hPa Calm     92 % 0 mm 12 W/m2
05:26 11.3 °C 10.1 °C 1013.4 hPa Calm     92 % 0 mm 12 W/m2
05:31 11.3 °C 9.9 °C 1013.4 hPa Calm     91 % 0 mm 12 W/m2
05:36 11.3 °C 10.1 °C 1013.4 hPa Calm     92 % 0 mm 16 W/m2
05:41 11.4 °C 10 °C 1013.4 hPa Calm     91 % 0 mm 21 W/m2
05:46 11.3 °C 9.9 °C 1013.4 hPa Calm     91 % 0 mm 30 W/m2
05:51 11.4 °C 10.2 °C 1013.4 hPa Calm     92 % 0 mm 19 W/m2
05:56 11.6 °C 10.5 °C 1013.4 hPa Calm     93 % 0 mm 25 W/m2
06:01 11.8 °C 10.6 °C 1013.4 hPa Calm     92 % 0 mm 19 W/m2
06:06 11.9 °C 10.7 °C 1013.4 hPa Calm     92 % 0 mm 21 W/m2
06:11 11.9 °C 10.7 °C 1013.4 hPa Calm     92 % 0 mm 25 W/m2
06:16 11.9 °C 10.7 °C 1013.4 hPa Calm     92 % 0 mm 28 W/m2
06:21 12.1 °C 10.8 °C 1013.4 hPa Calm     92 % 0 mm 28 W/m2
06:26 12.2 °C 10.9 °C 1013.4 hPa Calm     92 % 0 mm 30 W/m2
06:31 12.3 °C 11.1 °C 1013.4 hPa Calm     92 % 0 mm 30 W/m2
06:36 12.2 °C 10.8 °C 1013.4 hPa Calm     91 % 0 mm 32 W/m2
06:41 12.1 °C 10.7 °C 1013.1 hPa Calm     91 % 0 mm 39 W/m2
06:46 12.2 °C 10.8 °C 1013.1 hPa Calm     91 % 0 mm 33 W/m2
06:51 12.4 °C 11.1 °C 1013.1 hPa Calm     92 % 0 mm 35 W/m2
06:56 12.6 °C 11.3 °C 1013.1 hPa Calm     92 % 0 mm 33 W/m2
07:01 12.9 °C 11.6 °C 1013.1 hPa Calm     92 % 0 mm 35 W/m2
07:06 13.2 °C 11.9 °C 1013.1 hPa Calm     92 % 0 mm 37 W/m2
07:11 13.6 °C 12.3 °C 1013.1 hPa Calm     92 % 0 mm 47 W/m2
07:16 14 °C 12.6 °C 1013.1 hPa Calm     91 % 0 mm 42 W/m2
07:21 14.4 °C 12.8 °C 1013.1 hPa Calm     90 % 0 mm 120 W/m2
07:26 14.8 °C 13 °C 1013.1 hPa Calm     89 % 0 mm 287 W/m2
07:32 15.4 °C 13.2 °C 1013.1 hPa Calm     87 % 0 mm 302 W/m2
07:37 15.9 °C 13.4 °C 1013.1 hPa Calm     85 % 0 mm 325 W/m2
07:42 16.4 °C 13.7 °C 1013.1 hPa Calm     84 % 0 mm 338 W/m2
07:47 16.9 °C 13.8 °C 1013.1 hPa SSW 1.6 km/h 12.9 km/h 82 % 0 mm 355 W/m2
07:52 17.3 °C 13.8 °C 1012.8 hPa SSW 4.8 km/h 12.9 km/h 80 % 0 mm 369 W/m2
07:57 17.7 °C 14 °C 1012.8 hPa SSW 4.8 km/h 11.3 km/h 79 % 0 mm 390 W/m2
08:02 18.2 °C 14.3 °C 1012.8 hPa SSW 3.2 km/h 9.7 km/h 78 % 0 mm 390 W/m2
08:07 18.5 °C 14.2 °C 1012.8 hPa SSW 4.8 km/h 11.3 km/h 76 % 0 mm 397 W/m2
08:12 18.8 °C 14.5 °C 1012.8 hPa SSW 4.8 km/h 11.3 km/h 76 % 0 mm 413 W/m2
08:17 19.2 °C 14.7 °C 1012.8 hPa SSW 3.2 km/h 9.7 km/h 75 % 0 mm 427 W/m2
08:22 19.7 °C 14.9 °C 1012.8 hPa SW 3.2 km/h 9.7 km/h 74 % 0 mm 441 W/m2
08:27 20.3 °C 14.7 °C 1012.8 hPa WNW 3.2 km/h 9.7 km/h 70 % 0 mm 461 W/m2
08:32 20.8 °C 14.7 °C 1012.8 hPa WNW 3.2 km/h 9.7 km/h 68 % 0 mm 485 W/m2
08:37 20.9 °C 14.6 °C 1012.8 hPa WSW 4.8 km/h 12.9 km/h 67 % 0 mm 520 W/m2
08:42 20.7 °C 14.3 °C 1012.8 hPa SW 8 km/h 16.1 km/h 67 % 0 mm 598 W/m2
08:47 20.6 °C 14.3 °C 1012.8 hPa SW 11.3 km/h 20.9 km/h 67 % 0 mm 612 W/m2
08:52 20.5 °C 14.2 °C 1012.8 hPa SW 12.9 km/h 20.9 km/h 67 % 0 mm 190 W/m2
08:57 20.3 °C 14.2 °C 1012.4 hPa SSW 11.3 km/h 19.3 km/h 68 % 0 mm 309 W/m2
09:02 20.4 °C 14.5 °C 1012.4 hPa SSW 9.7 km/h 17.7 km/h 69 % 0 mm 241 W/m2
09:07 20.5 °C 14.4 °C 1012.4 hPa SW 8 km/h 17.7 km/h 68 % 0 mm 257 W/m2
09:12 20.4 °C 13.8 °C 1012.4 hPa SW 11.3 km/h 24.1 km/h 66 % 0 mm 285 W/m2
09:22 21.1 °C 14.5 °C 1012.4 hPa SW 9.7 km/h 17.7 km/h 66 % 0 mm 638 W/m2
09:27 21.6 °C 14.5 °C 1012.4 hPa West 9.7 km/h 19.3 km/h 64 % 0 mm 758 W/m2
09:32 21.9 °C 14.6 °C 1012.4 hPa West 12.9 km/h 22.5 km/h 63 % 0 mm 766 W/m2
09:37 21.9 °C 14.3 °C 1012.4 hPa West 12.9 km/h 22.5 km/h 62 % 0 mm 220 W/m2
09:42 21.7 °C 14.3 °C 1012.4 hPa West 11.3 km/h 20.9 km/h 63 % 0 mm 186 W/m2
09:47 21.6 °C 14 °C 1012.4 hPa West 12.9 km/h 20.9 km/h 62 % 0 mm 181 W/m2
09:52 21.4 °C 14.1 °C 1012.4 hPa West 12.9 km/h 20.9 km/h 63 % 0 mm 645 W/m2
09:57 21.3 °C 14.2 °C 1012.4 hPa WSW 12.9 km/h 19.3 km/h 64 % 0 mm 149 W/m2
10:02 21.3 °C 14.2 °C 1012.1 hPa WSW 12.9 km/h 20.9 km/h 64 % 0 mm 172 W/m2
10:07 21.2 °C 14.3 °C 1012.1 hPa West 11.3 km/h 20.9 km/h 65 % 0 mm 830 W/m2
10:12 21.4 °C 14.6 °C 1012.1 hPa WSW 12.9 km/h 24.1 km/h 65 % 0 mm 380 W/m2
10:17 21.6 °C 14.7 °C 1012.1 hPa West 14.5 km/h 24.1 km/h 65 % 0 mm 780 W/m2
10:22 21.8 °C 14.7 °C 1012.1 hPa West 14.5 km/h 20.9 km/h 64 % 0 mm 758 W/m2
10:27 21.8 °C 14.7 °C 1012.1 hPa WSW 12.9 km/h 20.9 km/h 64 % 0 mm 846 W/m2
10:29 21.8 °C 14.2 °C 1012.1 hPa WSW 14.5 km/h 29 km/h 62 % 0 mm 874 W/m2
10:34 21.8 °C 14.4 °C 1012.1 hPa SW 14.5 km/h 29 km/h 63 % 0 mm 805 W/m2
10:39 21.8 °C 14.4 °C 1012.1 hPa WSW 12.9 km/h 22.5 km/h 63 % 0 mm 823 W/m2
10:44 21.8 °C 14.7 °C 1012.1 hPa SW 12.9 km/h 20.9 km/h 64 % 0 mm 789 W/m2
10:49 22.1 °C 14.9 °C 1012.1 hPa SW 12.9 km/h 20.9 km/h 64 % 0 mm 800 W/m2
10:54 22.2 °C 14.8 °C 1012.1 hPa SW 14.5 km/h 20.9 km/h 63 % 0 mm 802 W/m2
10:59 22.3 °C 14.7 °C 1011.7 hPa SW 12.9 km/h 20.9 km/h 62 % 0 mm 807 W/m2
11:04 22.6 °C 14.7 °C 1011.7 hPa WSW 12.9 km/h 22.5 km/h 61 % 0 mm 833 W/m2
11:09 22.7 °C 14.8 °C 1011.7 hPa WSW 12.9 km/h 22.5 km/h 61 % 0 mm 863 W/m2
11:15 22.9 °C 14.7 °C 1011.7 hPa WSW 12.9 km/h 20.9 km/h 60 % 0 mm 898 W/m2
11:20 23.1 °C 14.7 °C 1011.7 hPa WSW 14.5 km/h 20.9 km/h 59 % 0 mm 1027 W/m2
11:25 23.3 °C 14.8 °C 1011.7 hPa WSW 14.5 km/h 20.9 km/h 59 % 0 mm 986 W/m2
11:30 23.2 °C 14.7 °C 1011.7 hPa SW 14.5 km/h 25.7 km/h 59 % 0 mm 970 W/m2
11:35 23.1 °C 14.9 °C 1011.4 hPa SW 12.9 km/h 25.7 km/h 60 % 0 mm 485 W/m2
11:40 23.3 °C 15.1 °C 1011.7 hPa SW 11.3 km/h 20.9 km/h 60 % 0 mm 466 W/m2
11:45 23.3 °C 14.8 °C 1011.7 hPa WSW 12.9 km/h 20.9 km/h 59 % 0 mm 503 W/m2
11:50 23.3 °C 14.8 °C 1011.4 hPa WSW 12.9 km/h 20.9 km/h 59 % 0 mm 454 W/m2
11:55 23.2 °C 15 °C 1011.4 hPa SW 12.9 km/h 20.9 km/h 60 % 0 mm 531 W/m2
12:00 23.3 °C 14.8 °C 1011.4 hPa SW 12.9 km/h 20.9 km/h 59 % 0 mm 1037 W/m2
12:05 23.7 °C 15.2 °C 1011.4 hPa SW 12.9 km/h 20.9 km/h 59 % 0 mm 417 W/m2
12:10 23.9 °C 15.4 °C 1011.4 hPa SSW 11.3 km/h 24.1 km/h 59 % 0 mm 441 W/m2
12:15 23.9 °C 15.1 °C 1011.1 hPa SSW 12.9 km/h 25.7 km/h 58 % 0 mm 1049 W/m2
12:20 23.9 °C 15.4 °C 1011.1 hPa SW 12.9 km/h 25.7 km/h 59 % 0 mm 299 W/m2
12:25 23.9 °C 14.6 °C 1011.1 hPa WSW 11.3 km/h 20.9 km/h 56 % 0 mm 306 W/m2
12:30 23.7 °C 14.7 °C 1011.1 hPa WSW 12.9 km/h 20.9 km/h 57 % 0 mm 1086 W/m2
12:35 23.9 °C 15.7 °C 1011.1 hPa WSW 9.7 km/h 17.7 km/h 60 % 0 mm 1093 W/m2
12:40 24 °C 14.7 °C 1011.1 hPa WSW 11.3 km/h 19.3 km/h 56 % 0 mm 262 W/m2
12:45 23.9 °C 15.1 °C 1011.1 hPa WSW 11.3 km/h 19.3 km/h 58 % 0 mm 408 W/m2
12:50 24.1 °C 15.3 °C 1011.1 hPa West 9.7 km/h 16.1 km/h 58 % 0 mm 1111 W/m2
12:55 24.2 °C 14.6 °C 1011.1 hPa WSW 12.9 km/h 19.3 km/h 55 % 0 mm 230 W/m2
13:00 24.1 °C 15.1 °C 1010.7 hPa WSW 12.9 km/h 19.3 km/h 57 % 0 mm 1137 W/m2
13:05 24.3 °C 14.7 °C 1010.7 hPa WSW 12.9 km/h 22.5 km/h 55 % 0 mm 262 W/m2
13:10 24.1 °C 14.5 °C 1010.7 hPa WSW 14.5 km/h 22.5 km/h 55 % 0 mm 265 W/m2
13:15 24.1 °C 14.5 °C 1010.7 hPa WSW 12.9 km/h 20.9 km/h 55 % 0 mm 1000 W/m2
13:20 24.1 °C 14.5 °C 1010.7 hPa SW 12.9 km/h 20.9 km/h 55 % 0 mm 1020 W/m2
13:25 24.1 °C 14.5 °C 1010.7 hPa SW 14.5 km/h 20.9 km/h 55 % 0 mm 724 W/m2
13:30 23.9 °C 14 °C 1010.7 hPa SW 14.5 km/h 22.5 km/h 54 % 0 mm 700 W/m2
13:35 23.9 °C 14.6 °C 1010.7 hPa SW 14.5 km/h 25.7 km/h 56 % 0 mm 557 W/m2
13:40 24.1 °C 14.5 °C 1010.4 hPa WSW 14.5 km/h 25.7 km/h 55 % 0 mm 940 W/m2
13:45 24.4 °C 15.1 °C 1010.4 hPa West 11.3 km/h 20.9 km/h 56 % 0 mm 979 W/m2
13:50 24.6 °C 14.9 °C 1010.4 hPa WSW 11.3 km/h 20.9 km/h 55 % 0 mm 192 W/m2
13:55 24.4 °C 14.8 °C 1010 hPa WSW 12.9 km/h 20.9 km/h 55 % 0 mm 306 W/m2
14:00 24.3 °C 14.4 °C 1010.4 hPa WSW 14.5 km/h 22.5 km/h 54 % 0 mm 320 W/m2
14:05 24.3 °C 14.7 °C 1010 hPa WSW 12.9 km/h 20.9 km/h 55 % 0 mm 1021 W/m2
14:10 24.4 °C 14.8 °C 1010 hPa WSW 12.9 km/h 20.9 km/h 55 % 0 mm 1014 W/m2
14:15 24.7 °C 14.5 °C 1010 hPa SW 11.3 km/h 20.9 km/h 53 % 0 mm 1093 W/m2
14:20 24.8 °C 14.6 °C 1010 hPa SW 11.3 km/h 19.3 km/h 53 % 0 mm 1009 W/m2
14:25 24.7 °C 14.8 °C 1010 hPa SW 11.3 km/h 19.3 km/h 54 % 0 mm 981 W/m2
14:30 24.7 °C 14.5 °C 1010 hPa SW 9.7 km/h 17.7 km/h 53 % 0 mm 287 W/m2
14:35 24.6 °C 14.4 °C 1010 hPa SSW 9.7 km/h 17.7 km/h 53 % 0 mm 1079 W/m2
14:40 24.7 °C 14.5 °C 1010 hPa SW 9.7 km/h 17.7 km/h 53 % 0 mm 223 W/m2
14:45 24.6 °C 14.4 °C 1010 hPa WSW 9.7 km/h 17.7 km/h 53 % 0 mm 234 W/m2
14:50 24.5 °C 14.6 °C 1010 hPa West 9.7 km/h 17.7 km/h 54 % 0 mm 216 W/m2
14:55 24.5 °C 14.9 °C 1010 hPa West 9.7 km/h 16.1 km/h 55 % 0 mm 357 W/m2
15:00 24.6 °C 14.7 °C 1010 hPa West 9.7 km/h 17.7 km/h 54 % 0 mm 279 W/m2
15:05 24.6 °C 14.7 °C 1009.7 hPa West 9.7 km/h 19.3 km/h 54 % 0 mm 234 W/m2
15:10 24.6 °C 14.4 °C 1009.7 hPa West 9.7 km/h 19.3 km/h 53 % 0 mm 1051 W/m2
15:15 24.6 °C 14.7 °C 1009.7 hPa SW 8 km/h 20.9 km/h 54 % 0 mm 327 W/m2
15:20 24.6 °C 14.4 °C 1009.7 hPa WSW 9.7 km/h 20.9 km/h 53 % 0 mm 237 W/m2
15:25 24.6 °C 14.4 °C 1009.7 hPa WSW 8 km/h 16.1 km/h 53 % 0 mm 371 W/m2
15:30 24.7 °C 15.1 °C 1009.7 hPa West 8 km/h 16.1 km/h 55 % 0 mm 984 W/m2
15:35 25 °C 15.1 °C 1009.7 hPa WNW 8 km/h 16.1 km/h 54 % 0 mm 193 W/m2
15:41 25.1 °C 14.8 °C 1009.7 hPa WNW 6.4 km/h 14.5 km/h 53 % 0 mm 221 W/m2
15:46 25.1 °C 15.1 °C 1009.7 hPa West 8 km/h 16.1 km/h 54 % 0 mm 912 W/m2
15:51 25.5 °C 15.2 °C 1009.7 hPa West 9.7 km/h 17.7 km/h 53 % 0 mm 893 W/m2
15:56 25.7 °C 15.1 °C 1009.4 hPa West 8 km/h 17.7 km/h 52 % 0 mm 782 W/m2
16:01 25.8 °C 14.6 °C 1009.4 hPa WNW 6.4 km/h 16.1 km/h 50 % 0 mm 186 W/m2
16:06 25.6 °C 15 °C 1009.4 hPa WNW 9.7 km/h 20.9 km/h 52 % 0 mm 218 W/m2
16:11 25.4 °C 14.8 °C 1009.4 hPa West 9.7 km/h 20.9 km/h 52 % 0 mm 232 W/m2
16:16 25.3 °C 14.7 °C 1009.4 hPa West 9.7 km/h 20.9 km/h 52 % 0 mm 220 W/m2
16:21 25.1 °C 14.6 °C 1009.4 hPa West 11.3 km/h 20.9 km/h 52 % 0 mm 178 W/m2
16:26 24.8 °C 14.6 °C 1009.4 hPa West 9.7 km/h 19.3 km/h 53 % 0 mm 332 W/m2
16:31 25.2 °C 14.9 °C 1009.4 hPa WNW 9.7 km/h 22.5 km/h 53 % 0 mm 809 W/m2
16:36 25.5 °C 14.9 °C 1009.4 hPa WNW 12.9 km/h 22.5 km/h 52 % 0 mm 190 W/m2
16:41 25.4 °C 15.1 °C 1009.4 hPa WNW 12.9 km/h 20.9 km/h 53 % 0 mm 721 W/m2
16:46 25.3 °C 14.7 °C 1009.4 hPa NW 9.7 km/h 20.9 km/h 52 % 0 mm 701 W/m2
16:51 25.3 °C 15.1 °C 1009.4 hPa NW 9.7 km/h 17.7 km/h 53 % 0 mm 670 W/m2
16:56 25.6 °C 15.3 °C 1009.4 hPa NW 12.9 km/h 24.1 km/h 53 % 0 mm 657 W/m2
17:01 25.7 °C 15.1 °C 1009 hPa WNW 11.3 km/h 24.1 km/h 52 % 0 mm 643 W/m2
17:06 25.6 °C 15 °C 1009 hPa WNW 11.3 km/h 20.9 km/h 52 % 0 mm 594 W/m2
17:11 25.4 °C 14.8 °C 1009 hPa NW 11.3 km/h 20.9 km/h 52 % 0 mm 585 W/m2
17:16 25.4 °C 14.8 °C 1009 hPa NW 11.3 km/h 20.9 km/h 52 % 0 mm 564 W/m2
17:21 25.6 °C 15 °C 1009 hPa WNW 12.9 km/h 22.5 km/h 52 % 0 mm 540 W/m2
17:26 25.5 °C 14.9 °C 1009 hPa West 14.5 km/h 24.1 km/h 52 % 0 mm 526 W/m2
17:31 25.4 °C 14.8 °C 1009 hPa WNW 14.5 km/h 24.1 km/h 52 % 0 mm 538 W/m2
17:36 25.4 °C 14.8 °C 1009 hPa WNW 12.9 km/h 22.5 km/h 52 % 0 mm 538 W/m2
17:41 25.4 °C 14.8 °C 1008.7 hPa WNW 11.3 km/h 22.5 km/h 52 % 0 mm 483 W/m2
17:46 25.5 °C 15.2 °C 1008.7 hPa WNW 9.7 km/h 19.3 km/h 53 % 0 mm 462 W/m2
17:51 25.6 °C 15 °C 1009 hPa WNW 11.3 km/h 19.3 km/h 52 % 0 mm 450 W/m2
17:56 25.6 °C 15 °C 1008.7 hPa WNW 11.3 km/h 19.3 km/h 52 % 0 mm 462 W/m2
18:01 25.4 °C 14.8 °C 1008.7 hPa WNW 11.3 km/h 19.3 km/h 52 % 0 mm 464 W/m2
18:06 25.3 °C 14.7 °C 1008.7 hPa WNW 12.9 km/h 19.3 km/h 52 % 0 mm 448 W/m2
18:11 25.3 °C 14.7 °C 1008.7 hPa WNW 11.3 km/h 19.3 km/h 52 % 0 mm 93 W/m2
18:16 25.2 °C 14.7 °C 1008.7 hPa WNW 11.3 km/h 17.7 km/h 52 % 0 mm 424 W/m2
18:19 25.2 °C 14.7 °C 1008.7 hPa WNW 12.9 km/h 20.9 km/h 52 % 0 mm 392 W/m2
18:25 25.2 °C 14.9 °C 1008.4 hPa WNW 12.9 km/h 22.5 km/h 53 % 0 mm 376 W/m2
18:30 25 °C 15.3 °C 1008.4 hPa NW 11.3 km/h 22.5 km/h 55 % 0 mm 69 W/m2
18:35 24.7 °C 15.3 °C 1008.4 hPa NW 9.7 km/h 16.1 km/h 56 % 0 mm 90 W/m2
18:40 24.4 °C 15.3 °C 1008.4 hPa NW 11.3 km/h 24.1 km/h 57 % 0 mm 369 W/m2
18:45 24.3 °C 15.2 °C 1008.4 hPa NW 11.3 km/h 24.1 km/h 57 % 0 mm 320 W/m2
18:50 24.2 °C 15.4 °C 1008.4 hPa NNW 11.3 km/h 19.3 km/h 58 % 0 mm 287 W/m2
18:55 24.2 °C 15.4 °C 1008.4 hPa NNW 11.3 km/h 19.3 km/h 58 % 0 mm 274 W/m2
19:00 24.2 °C 15.7 °C 1008.4 hPa NW 11.3 km/h 17.7 km/h 59 % 0 mm 262 W/m2
19:05 24.1 °C 15.3 °C 1008.4 hPa NW 9.7 km/h 20.9 km/h 58 % 0 mm 253 W/m2
19:10 24.1 °C 15.3 °C 1008.4 hPa NW 9.7 km/h 20.9 km/h 58 % 0 mm 241 W/m2
19:15 23.9 °C 15.1 °C 1008.4 hPa NW 9.7 km/h 19.3 km/h 58 % 0 mm 229 W/m2
19:20 24 °C 15.2 °C 1008.4 hPa NW 9.7 km/h 19.3 km/h 58 % 0 mm 214 W/m2
19:25 23.9 °C 15.1 °C 1008.4 hPa NW 9.7 km/h 17.7 km/h 58 % 0 mm 204 W/m2
19:30 23.9 °C 15.1 °C 1008.4 hPa NW 8 km/h 17.7 km/h 58 % 0 mm 193 W/m2
19:35 23.8 °C 15.1 °C 1008.4 hPa NW 8 km/h 16.1 km/h 58 % 0 mm 179 W/m2
19:40 23.7 °C 14.9 °C 1008.4 hPa NW 9.7 km/h 16.1 km/h 58 % 0 mm 174 W/m2
19:45 23.7 °C 15.2 °C 1008.4 hPa NW 8 km/h 14.5 km/h 59 % 0 mm 171 W/m2
19:50 23.6 °C 15.1 °C 1008.7 hPa NW 8 km/h 16.1 km/h 59 % 0 mm 172 W/m2
19:56 23.5 °C 15 °C 1008.7 hPa NW 9.7 km/h 16.1 km/h 59 % 0 mm 151 W/m2
20:01 23.4 °C 15.2 °C 1008.7 hPa NW 9.7 km/h 16.1 km/h 60 % 0 mm 156 W/m2
20:06 23.2 °C 15 °C 1008.4 hPa NW 11.3 km/h 19.3 km/h 60 % 0 mm 98 W/m2
20:11 22.8 °C 14.9 °C 1008.4 hPa NW 11.3 km/h 19.3 km/h 61 % 0 mm 67 W/m2
20:16 22.6 °C 14.9 °C 1008.7 hPa NW 9.7 km/h 17.7 km/h 62 % 0 mm 56 W/m2
20:21 22.4 °C 14.8 °C 1008.4 hPa NW 8 km/h 16.1 km/h 62 % 0 mm 74 W/m2
20:26 22.3 °C 14.7 °C 1008.4 hPa NW 8 km/h 16.1 km/h 62 % 0 mm 69 W/m2
20:31 22.1 °C 14.7 °C 1008.4 hPa NW 9.7 km/h 20.9 km/h 63 % 0 mm 44 W/m2
20:36 21.8 °C 14.7 °C 1008.4 hPa NW 11.3 km/h 20.9 km/h 64 % 0 mm 37 W/m2
20:41 21.6 °C 14.7 °C 1008.7 hPa NW 9.7 km/h 19.3 km/h 65 % 0 mm 35 W/m2
20:46 21.4 °C 14.6 °C 1008.7 hPa NW 9.7 km/h 16.1 km/h 65 % 0 mm 35 W/m2
20:51 21.2 °C 14.6 °C 1008.7 hPa NW 9.7 km/h 16.1 km/h 66 % 0 mm 26 W/m2
21:01 20.9 °C 14.6 °C 1008.7 hPa NW 8 km/h 16.1 km/h 67 % 0 mm 12 W/m2
21:06 20.8 °C 14.4 °C 1009 hPa NW 8 km/h 17.7 km/h 67 % 0 mm 12 W/m2
21:11 20.7 °C 14.6 °C 1008.7 hPa NW 8 km/h 17.7 km/h 68 % 0 mm 7 W/m2
21:16 20.6 °C 14.7 °C 1009 hPa NNW 8 km/h 16.1 km/h 69 % 0 mm 5 W/m2
21:21 20.5 °C 14.6 °C 1009 hPa NNW 8 km/h 16.1 km/h 69 % 0 mm 0 W/m2
21:26 20.4 °C 14.7 °C 1009 hPa NW 6.4 km/h 12.9 km/h 70 % 0 mm 0 W/m2
21:31 20.3 °C 14.7 °C 1009 hPa NW 4.8 km/h 14.5 km/h 70 % 0 mm 0 W/m2
21:36 20.2 °C 14.8 °C 1009 hPa NW 6.4 km/h 14.5 km/h 71 % 0 mm 0 W/m2
21:41 20.1 °C 14.7 °C 1009.4 hPa NNW 6.4 km/h 14.5 km/h 71 % 0 mm 0 W/m2
21:46 19.9 °C 14.7 °C 1009.4 hPa NNW 8 km/h 14.5 km/h 72 % 0 mm 0 W/m2
21:51 19.8 °C 14.6 °C 1009.4 hPa NW 8 km/h 14.5 km/h 72 % 0 mm 0 W/m2
21:56 19.7 °C 14.5 °C 1009.4 hPa NW 6.4 km/h 14.5 km/h 72 % 0 mm 0 W/m2
22:01 19.7 °C 14.7 °C 1009.4 hPa NW 6.4 km/h 16.1 km/h 73 % 0 mm 0 W/m2
22:06 19.5 °C 14.6 °C 1009.4 hPa NNW 8 km/h 16.1 km/h 73 % 0 mm 0 W/m2
22:11 19.4 °C 14.4 °C 1009.4 hPa NNW 8 km/h 14.5 km/h 73 % 0 mm 0 W/m2
22:17 19.3 °C 14.3 °C 1009.4 hPa NNW 6.4 km/h 16.1 km/h 73 % 0 mm 0 W/m2
22:22 19.1 °C 14.2 °C 1009.4 hPa NNW 8 km/h 17.7 km/h 73 % 0 mm 0 W/m2
22:23 19 °C 14.1 °C 1009.4 hPa NNW 9.7 km/h 17.7 km/h 73 % 0 mm 0 W/m2
22:28 18.9 °C 14.2 °C 1009.4 hPa NNW 9.7 km/h 17.7 km/h 74 % 0 mm 0 W/m2
22:33 18.8 °C 14.1 °C 1009.4 hPa NW 8 km/h 14.5 km/h 74 % 0 mm 0 W/m2
22:38 18.7 °C 14.2 °C 1009 hPa NNW 6.4 km/h 12.9 km/h 75 % 0 mm 0 W/m2
22:43 18.7 °C 14.2 °C 1009.4 hPa NW 6.4 km/h 12.9 km/h 75 % 0 mm 0 W/m2
22:48 18.7 °C 14.2 °C 1009.4 hPa NW 6.4 km/h 11.3 km/h 75 % 0 mm 0 W/m2
22:53 18.6 °C 14.1 °C 1009 hPa NW 6.4 km/h 12.9 km/h 75 % 0 mm 0 W/m2
22:58 18.6 °C 14.1 °C 1009 hPa NW 8 km/h 12.9 km/h 75 % 0 mm 0 W/m2
23:03 18.5 °C 14.2 °C 1009 hPa NW 6.4 km/h 12.9 km/h 76 % 0 mm 0 W/m2
23:08 18.4 °C 14.1 °C 1009.4 hPa WNW 4.8 km/h 11.3 km/h 76 % 0 mm 0 W/m2
23:13 18.4 °C 14.1 °C 1009.4 hPa NW 4.8 km/h 11.3 km/h 76 % 0 mm 0 W/m2
23:18 18.4 °C 14.3 °C 1009.4 hPa NW 3.2 km/h 8 km/h 77 % 0 mm 0 W/m2
23:24 18.4 °C 14.3 °C 1009.4 hPa NW 1.6 km/h 8 km/h 77 % 0 mm 0 W/m2
23:29 18.3 °C 14.4 °C 1009.4 hPa WNW 3.2 km/h 11.3 km/h 78 % 0 mm 0 W/m2
23:34 18.3 °C 14.4 °C 1009.4 hPa WNW 6.4 km/h 11.3 km/h 78 % 0 mm 0 W/m2
23:39 18.2 °C 14.5 °C 1009.4 hPa WNW 6.4 km/h 11.3 km/h 79 % 0 mm 0 W/m2
23:44 18 °C 14.3 °C 1009 hPa NW 4.8 km/h 11.3 km/h 79 % 0 mm 0 W/m2
23:49 17.8 °C 14.1 °C 1009.4 hPa NW 4.8 km/h 11.3 km/h 79 % 0 mm 0 W/m2
23:54 17.7 °C 14 °C 1009.4 hPa NW 4.8 km/h 11.3 km/h 79 % 0 mm 0 W/m2
23:59 17.7 °C 14.2 °C 1009 hPa NW 1.6 km/h 6.4 km/h 80 % 0 mm 0 W/m2
Delerius-Weather
Compliments of Weather Underground - 2.25 mb

Data updates at regular intervals.